Time;durP1;ratioP1;P1;durP2;ratioP2;P2;SDS_P1;SDS_P2;PMS_P1;PMS_P2;Temp;Humidity;BMP_temperature;BMP_pressure;BME280_temperature;BME280_humidity;BME280_pressure;Samples;Min_cycle;Max_cycle;Signal;HPM_P1;HPM_P2
2020/12/27 00:02:17;;;;;;;;;7.50;6.00;;;;;10.90;52.88;98780.41;4705448;28;104603;-78
2020/12/27 00:04:44;;;;;;;;;11.00;6.00;;;;;10.90;52.82;98780.41;4692530;29;102949;-77
2020/12/27 00:07:14;;;;;;;;;6.75;5.75;;;;;10.90;52.60;98765.03;4701915;29;102796;-77
2020/12/27 00:09:44;;;;;;;;;8.25;6.00;;;;;10.90;53.02;98769.59;4702784;29;103950;-75
2020/12/27 00:12:13;;;;;;;;;11.00;7.00;;;;;10.94;53.92;98769.00;4701996;28;105018;-75
2020/12/27 00:14:40;;;;;;;;;8.25;6.75;;;;;10.94;54.02;98762.78;4707505;29;102968;-75
2020/12/27 00:17:08;;;;;;;;;8.50;5.00;;;;;10.93;53.33;98750.28;4709530;28;102875;-75
2020/12/27 00:19:35;;;;;;;;;7.00;6.00;;;;;10.94;53.28;98750.06;4710916;28;102901;-75
2020/12/27 00:22:02;;;;;;;;;7.50;6.50;;;;;10.94;53.16;98749.25;4703468;28;104434;-75
2020/12/27 00:24:28;;;;;;;;;10.75;7.00;;;;;10.92;52.99;98748.59;4700330;28;104562;-73
2020/12/27 00:26:55;;;;;;;;;10.75;7.50;;;;;10.92;53.15;98746.72;4699904;28;102943;-73
2020/12/27 00:29:22;;;;;;;;;5.00;5.00;;;;;10.92;53.17;98740.47;4701434;29;103583;-73
2020/12/27 00:31:49;;;;;;;;;7.00;7.00;;;;;10.90;53.04;98743.38;4706005;29;104322;-73
2020/12/27 00:34:16;;;;;;;;;6.00;5.75;;;;;10.90;52.90;98747.94;4708243;28;102741;-73
2020/12/27 00:36:43;;;;;;;;;5.25;5.25;;;;;10.89;53.19;98757.13;4698705;29;104084;-73
2020/12/27 00:39:10;;;;;;;;;8.00;5.75;;;;;10.89;53.03;98746.31;4707536;29;103026;-73
2020/12/27 00:41:37;;;;;;;;;6.25;6.00;;;;;10.89;53.00;98740.88;4695695;29;104221;-73
2020/12/27 00:44:04;;;;;;;;;8.25;6.00;;;;;10.89;52.98;98744.44;4702651;29;103032;-73
2020/12/27 00:46:30;;;;;;;;;6.00;6.00;;;;;10.88;52.85;98728.41;4704505;29;102768;-73
2020/12/27 00:48:57;;;;;;;;;8.25;6.75;;;;;10.88;52.70;98729.22;4707160;29;102772;-73
2020/12/27 00:51:24;;;;;;;;;8.00;6.00;;;;;10.88;52.57;98726.53;4689819;28;104481;-73
2020/12/27 00:53:54;;;;;;;;;12.75;7.00;;;;;10.88;52.91;98717.56;4682942;29;102936;-73
2020/12/27 00:56:23;;;;;;;;;4.00;3.00;;;;;10.88;52.60;98717.56;4699923;29;106447;-73
2020/12/27 00:58:50;;;;;;;;;7.00;6.25;;;;;10.89;52.85;98713.84;4695920;28;103128;-73
2020/12/27 01:01:16;;;;;;;;;7.25;5.50;;;;;10.89;52.77;98719.25;4686628;29;103914;-73
2020/12/27 01:03:43;;;;;;;;;7.75;5.00;;;;;10.90;52.42;98715.50;4687637;29;103327;-73
2020/12/27 01:06:12;;;;;;;;;5.00;5.00;;;;;10.90;52.43;98707.38;4678952;29;102981;-73
2020/12/27 01:08:41;;;;;;;;;5.50;4.50;;;;;10.88;52.66;98713.00;4690816;29;104488;-73
2020/12/27 01:11:13;;;;;;;;;5.25;4.00;;;;;10.90;52.26;98716.31;4699645;29;103866;-73
2020/12/27 01:13:42;;;;;;;;;6.00;4.75;;;;;10.90;52.55;98710.06;4700325;29;102895;-73
2020/12/27 01:16:11;;;;;;;;;8.75;8.25;;;;;10.89;52.52;98703.84;4693642;28;102871;-73
2020/12/27 01:18:42;;;;;;;;;6.00;5.00;;;;;10.89;52.52;98693.03;4710892;28;103921;-73
2020/12/27 01:21:09;;;;;;;;;6.50;6.00;;;;;10.87;52.69;98694.25;4712306;29;103096;-73
2020/12/27 01:23:43;;;;;;;;;8.25;6.00;;;;;10.86;52.42;98698.00;4699248;29;102960;-73
2020/12/27 01:26:14;;;;;;;;;8.25;6.00;;;;;10.86;52.45;98698.00;4696412;29;104096;-73
2020/12/27 01:28:51;;;;;;;;;6.00;5.50;;;;;10.86;52.33;98692.59;4701228;29;103163;-73
2020/12/27 01:31:24;;;;;;;;;6.00;6.00;;;;;10.83;52.66;98676.75;4698684;29;109160;-73
2020/12/27 01:33:59;;;;;;;;;6.75;5.75;;;;;10.82;52.56;98681.34;4643396;29;103347;-73
2020/12/27 01:36:33;;;;;;;;;5.00;4.00;;;;;10.83;52.44;98679.47;4697580;29;102795;-73
2020/12/27 01:39:05;;;;;;;;;6.00;5.25;;;;;10.82;52.42;98678.63;4688051;29;103015;-73
2020/12/27 01:41:38;;;;;;;;;7.00;6.00;;;;;10.83;52.58;98676.75;4694068;29;103868;-73
2020/12/27 01:44:11;;;;;;;;;6.25;5.50;;;;;10.82;52.41;98678.63;4706162;29;103083;-73
2020/12/27 01:46:39;;;;;;;;;7.00;6.00;;;;;10.82;52.31;98686.75;4695736;29;103172;-73
2020/12/27 01:49:06;;;;;;;;;5.75;5.50;;;;;10.82;52.52;98670.50;4706883;28;102836;-73
2020/12/27 01:51:33;;;;;;;;;6.50;6.00;;;;;10.83;52.08;98663.25;4696484;28;104007;-73
2020/12/27 01:54:00;;;;;;;;;9.50;6.75;;;;;10.82;52.41;98666.97;4704854;29;104306;-73
2020/12/27 01:56:33;;;;;;;;;9.50;6.00;;;;;10.81;52.28;98665.31;4697147;29;102971;-73
2020/12/27 01:59:10;;;;;;;;;6.50;6.00;;;;;10.82;52.42;98656.16;4704966;29;102926;-73
2020/12/27 02:01:37;;;;;;;;;6.50;6.50;;;;;10.81;52.28;98651.81;4723478;29;104092;-73
2020/12/27 02:04:04;;;;;;;;;6.25;6.00;;;;;10.79;52.48;98648.44;4703733;29;103050;-73
2020/12/27 02:06:31;;;;;;;;;5.00;5.00;;;;;10.79;52.77;98643.88;4672149;29;103192;-73
2020/12/27 02:08:59;;;;;;;;;5.00;4.00;;;;;10.79;52.38;98652.00;4706356;29;103007;-73
2020/12/27 02:11:26;;;;;;;;;10.00;6.50;;;;;10.79;52.42;98643.88;4710451;29;105492;-73
2020/12/27 02:13:56;;;;;;;;;7.00;5.00;;;;;10.79;52.46;98643.03;4703539;28;102975;-73
2020/12/27 02:16:28;;;;;;;;;7.00;6.25;;;;;10.78;52.41;98644.06;4697509;28;102754;-73
2020/12/27 02:18:56;;;;;;;;;11.75;10.00;;;;;10.78;52.61;98638.66;4714932;29;103238;-73
2020/12/27 02:21:23;;;;;;;;;5.75;5.25;;;;;10.77;52.39;98640.53;4709098;29;104474;-73
2020/12/27 02:23:57;;;;;;;;;8.00;6.00;;;;;10.77;52.31;98634.28;4708996;29;103105;-73
2020/12/27 02:26:27;;;;;;;;;4.00;4.00;;;;;10.76;52.33;98632.63;4700277;29;104220;-73
2020/12/27 02:28:57;;;;;;;;;7.50;5.50;;;;;10.76;52.48;98628.06;4702546;29;103600;-73
2020/12/27 02:31:24;;;;;;;;;9.50;6.00;;;;;10.75;52.46;98615.56;4703371;28;104420;-73
2020/12/27 02:33:52;;;;;;;;;3.00;0.00;;;;;10.76;52.79;98619.94;4693118;29;103210;-73
2020/12/27 02:36:20;;;;;;;;;7.00;6.00;;;;;10.77;52.69;98615.34;4701527;29;103624;-73
2020/12/27 02:38:47;;;;;;;;;6.50;5.50;;;;;10.77;52.44;98609.94;4700225;29;107546;-73
2020/12/27 02:41:20;;;;;;;;;7.75;6.00;;;;;10.76;52.56;98602.88;4691544;29;109297;-73
2020/12/27 02:43:47;;;;;;;;;6.50;6.00;;;;;10.75;52.47;98593.94;4694199;29;102823;-73
2020/12/27 02:46:21;;;;;;;;;6.75;5.75;;;;;10.75;52.43;98599.34;4701895;28;103042;-73
2020/12/27 02:48:48;;;;;;;;;6.25;6.00;;;;;10.74;52.52;98584.16;4700610;29;102907;-73
2020/12/27 02:51:16;;;;;;;;;6.25;4.50;;;;;10.74;52.38;98592.25;4705056;29;109234;-73
2020/12/27 02:53:48;;;;;;;;;7.00;5.00;;;;;10.73;52.44;98586.00;4695615;28;102857;-73
2020/12/27 02:56:18;;;;;;;;;8.00;6.75;;;;;10.73;52.42;98580.59;4700710;29;103646;-73
2020/12/27 02:58:51;;;;;;;;;8.50;5.75;;;;;10.72;52.37;98578.94;4679775;29;102964;-73
2020/12/27 03:01:28;;;;;;;;;6.00;6.00;;;;;10.71;52.36;98571.88;4646326;29;108653;-73
2020/12/27 03:03:54;;;;;;;;;6.50;6.00;;;;;10.73;52.40;98574.34;4703673;29;102881;-73
2020/12/27 03:06:28;;;;;;;;;1.00;1.00;;;;;10.70;52.57;98564.78;4686752;29;103078;-73
2020/12/27 03:08:54;;;;;;;;;9.00;4.75;;;;;10.70;52.46;98562.09;4704538;29;103023;-73
2020/12/27 03:11:25;;;;;;;;;8.75;6.00;;;;;10.70;52.26;98548.56;4699391;28;104030;-74
2020/12/27 03:13:52;;;;;;;;;5.50;5.00;;;;;10.70;52.59;98545.88;4705293;28;103093;-73
2020/12/27 03:16:19;;;;;;;;;5.25;5.00;;;;;10.71;52.26;98527.78;4703511;29;102884;-73
2020/12/27 03:18:45;;;;;;;;;7.00;7.00;;;;;10.68;52.17;98522.75;4694438;29;103405;-73
2020/12/27 03:21:12;;;;;;;;;8.75;7.00;;;;;10.68;52.20;98522.75;4696534;29;104410;-73
2020/12/27 03:23:39;;;;;;;;;7.25;5.25;;;;;10.67;52.11;98521.91;4701699;28;103023;-73
2020/12/27 03:26:05;;;;;;;;;8.00;6.50;;;;;10.67;52.45;98513.00;4710728;28;104168;-73
2020/12/27 03:28:32;;;;;;;;;6.50;5.00;;;;;10.67;52.40;98515.69;4708060;29;103143;-73
2020/12/27 03:30:59;;;;;;;;;6.25;5.00;;;;;10.65;52.43;98505.06;4697658;29;104342;-73
2020/12/27 03:33:25;;;;;;;;;7.25;5.50;;;;;10.66;52.40;98514.88;4705004;29;102853;-73
2020/12/27 03:35:52;;;;;;;;;6.00;5.50;;;;;10.64;52.45;98506.09;4701903;29;102683;-73
2020/12/27 03:38:18;;;;;;;;;6.00;6.00;;;;;10.65;52.33;98506.94;4712438;29;103574;-73
2020/12/27 03:40:45;;;;;;;;;6.75;4.00;;;;;10.65;52.14;98507.78;4709349;29;104650;-73
2020/12/27 03:43:12;;;;;;;;;3.00;3.00;;;;;10.65;52.35;98496.97;4711745;28;103090;-73
2020/12/27 03:45:41;;;;;;;;;6.00;5.25;;;;;10.64;52.33;98492.59;4705027;29;102991;-73
2020/12/27 03:48:08;;;;;;;;;5.00;5.00;;;;;10.64;52.34;98495.28;4709212;29;102789;-73
2020/12/27 03:50:35;;;;;;;;;8.50;8.00;;;;;10.63;52.20;98490.91;4708904;29;104055;-73
2020/12/27 03:53:01;;;;;;;;;6.50;5.25;;;;;10.61;52.30;98484.91;4702650;29;103070;-73
2020/12/27 03:55:28;;;;;;;;;2.75;2.00;;;;;10.61;52.21;98482.19;4706553;29;103540;-73
2020/12/27 03:57:54;;;;;;;;;5.75;5.25;;;;;10.63;52.45;98485.50;4709589;28;103672;-73
2020/12/27 04:00:21;;;;;;;;;6.75;6.00;;;;;10.61;52.56;98482.19;4713652;29;104640;-73
2020/12/27 04:02:48;;;;;;;;;5.75;5.75;;;;;10.61;52.40;98484.06;4700735;28;102728;-73
2020/12/27 04:05:15;;;;;;;;;5.75;5.25;;;;;10.59;52.25;98478.00;4699744;29;102895;-73
2020/12/27 04:07:41;;;;;;;;;5.75;4.75;;;;;10.59;52.54;98468.03;4694632;29;104184;-73
2020/12/27 04:10:15;;;;;;;;;6.75;4.75;;;;;10.60;52.29;98472.41;4695264;29;104103;-73
2020/12/27 04:12:41;;;;;;;;;7.00;5.00;;;;;10.64;52.33;98462.00;4702702;29;104370;-73
2020/12/27 04:15:08;;;;;;;;;5.75;5.75;;;;;10.73;52.23;98471.59;4699769;29;102903;-73
2020/12/27 04:17:35;;;;;;;;;7.00;5.00;;;;;10.78;51.55;98460.16;4704205;28;103400;-73
2020/12/27 04:20:01;;;;;;;;;5.00;4.00;;;;;10.79;51.65;98459.97;4711162;29;103914;-73
2020/12/27 04:22:28;;;;;;;;;3.25;3.00;;;;;10.81;51.53;98448.94;4692531;29;102919;-73
2020/12/27 04:24:54;;;;;;;;;3.25;3.00;;;;;10.87;51.32;98434.59;4708026;29;103182;-75
2020/12/27 04:27:21;;;;;;;;;4.00;3.00;;;;;10.91;51.28;98435.84;4707753;29;103170;-75
2020/12/27 04:29:48;;;;;;;;;6.25;4.00;;;;;10.92;51.09;98435.63;4702339;29;104029;-75
2020/12/27 04:32:15;;;;;;;;;3.50;3.00;;;;;10.98;51.26;98436.69;4696352;29;103052;-75
2020/12/27 04:34:41;;;;;;;;;3.25;3.00;;;;;11.01;50.99;98430.84;4703904;29;102760;-75
2020/12/27 04:37:23;;;;;;;;;6.00;4.00;;;;;11.02;51.30;98421.69;4705867;28;103084;-75
2020/12/27 04:39:50;;;;;;;;;3.75;3.00;;;;;11.03;51.20;98420.66;4705920;28;104346;-75
2020/12/27 04:42:17;;;;;;;;;5.00;4.50;;;;;11.07;50.87;98421.91;4706488;29;102709;-75
2020/12/27 04:44:44;;;;;;;;;4.00;3.75;;;;;11.09;50.96;98425.22;4701275;29;102955;-75
2020/12/27 04:47:12;;;;;;;;;3.25;3.00;;;;;11.11;50.79;98418.59;4713532;29;106184;-75
2020/12/27 04:49:39;;;;;;;;;5.00;4.25;;;;;11.13;50.69;98408.34;4705814;29;104158;-75
2020/12/27 04:52:06;;;;;;;;;3.50;3.50;;;;;11.15;50.48;98409.00;4699054;28;102725;-75
2020/12/27 04:54:32;;;;;;;;;4.75;4.75;;;;;11.18;50.77;98415.84;4686700;29;104218;-74
2020/12/27 04:56:59;;;;;;;;;5.00;4.50;;;;;11.17;50.45;98403.34;4695036;28;103116;-73
2020/12/27 04:59:26;;;;;;;;;5.50;5.00;;;;;11.22;50.71;98398.16;4712993;29;106293;-73
2020/12/27 05:01:53;;;;;;;;;5.00;5.00;;;;;11.23;50.27;98391.69;4692695;29;103017;-73
2020/12/27 05:04:25;;;;;;;;;5.75;4.25;;;;;11.24;50.26;98392.53;4701458;29;103005;-73
2020/12/27 05:06:55;;;;;;;;;6.50;5.50;;;;;11.25;50.30;98395.03;4711935;28;102958;-73
2020/12/27 05:09:28;;;;;;;;;9.50;6.00;;;;;11.26;50.47;98390.47;4706658;29;103623;-73
2020/12/27 05:11:54;;;;;;;;;5.75;5.75;;;;;11.26;50.27;98393.16;4698380;29;103131;-73
2020/12/27 05:14:30;;;;;;;;;6.25;4.75;;;;;11.26;50.05;98385.84;4699953;28;103392;-73
2020/12/27 05:16:58;;;;;;;;;6.00;5.75;;;;;11.26;50.62;98382.34;4656783;29;102982;-73
2020/12/27 05:19:25;;;;;;;;;7.25;5.25;;;;;11.23;50.42;98386.28;4708244;29;104497;-73
2020/12/27 05:21:54;;;;;;;;;5.75;4.50;;;;;11.20;50.63;98384.00;4713165;29;103049;-73
2020/12/27 05:24:21;;;;;;;;;5.00;4.00;;;;;11.18;50.16;98378.81;4703281;28;103108;-73
2020/12/27 05:26:47;;;;;;;;;4.00;3.00;;;;;11.18;50.77;98389.63;4701270;29;103322;-73
2020/12/27 05:29:35;;;;;;;;;5.00;5.00;;;;;11.17;50.77;98381.72;4683091;29;104384;-73
2020/12/27 05:32:01;;;;;;;;;5.25;5.00;;;;;11.16;50.48;98382.78;4643804;29;108431;-73
2020/12/27 05:34:29;;;;;;;;;3.00;2.00;;;;;11.13;50.71;98372.34;4688937;29;103468;-73
2020/12/27 05:37:01;;;;;;;;;5.25;5.00;;;;;11.13;50.55;98375.06;4704351;28;103066;-73
2020/12/27 05:39:28;;;;;;;;;3.75;3.75;;;;;11.11;50.60;98375.28;4686583;29;108000;-73
2020/12/27 05:42:05;;;;;;;;;6.00;6.00;;;;;11.08;50.77;98374.84;4704949;29;103021;-73
2020/12/27 05:44:34;;;;;;;;;3.00;3.00;;;;;11.08;50.83;98375.69;4700387;29;102937;-73
2020/12/27 05:47:02;;;;;;;;;3.50;3.00;;;;;11.04;50.93;98362.78;4697356;29;103639;-73
2020/12/27 05:49:29;;;;;;;;;4.00;3.00;;;;;11.04;50.82;98371.75;4707359;29;104158;-73
2020/12/27 05:51:57;;;;;;;;;3.75;3.75;;;;;11.03;51.28;98367.34;4708337;28;102907;-73
2020/12/27 05:54:34;;;;;;;;;3.00;3.00;;;;;11.03;50.93;98367.34;4701388;29;102843;-73
2020/12/27 05:57:02;;;;;;;;;5.00;5.00;;;;;11.02;50.78;98368.44;4698505;28;103336;-73
2020/12/27 05:59:33;;;;;;;;;4.00;3.00;;;;;11.01;50.83;98374.03;4710889;29;104069;-73
2020/12/27 06:02:00;;;;;;;;;5.00;4.00;;;;;10.98;51.25;98360.94;4704700;28;102940;-73
2020/12/27 06:04:38;;;;;;;;;2.75;2.75;;;;;10.95;50.90;98355.94;4706121;28;102878;-73
2020/12/27 06:07:06;;;;;;;;;5.00;4.00;;;;;10.94;51.21;98359.69;4712850;28;103725;-73
2020/12/27 06:09:47;;;;;;;;;4.50;4.50;;;;;10.90;51.07;98342.19;4693478;29;104423;-73
2020/12/27 06:12:14;;;;;;;;;4.25;4.25;;;;;10.91;51.13;98360.94;4695710;29;104437;-73
2020/12/27 06:14:42;;;;;;;;;6.25;4.00;;;;;10.89;51.11;98354.91;4673783;29;103163;-73
2020/12/27 06:17:12;;;;;;;;;2.00;2.00;;;;;10.88;50.90;98360.53;4696945;29;104100;-73
2020/12/27 06:19:58;;;;;;;;;3.75;3.75;;;;;10.89;50.92;98362.19;4697018;28;104474;-73
2020/12/27 06:22:33;;;;;;;;;5.25;5.00;;;;;10.88;50.78;98368.63;4693745;29;103059;-73
2020/12/27 06:25:01;;;;;;;;;4.50;4.00;;;;;10.85;51.11;98360.94;4694939;29;102907;-73
2020/12/27 06:27:28;;;;;;;;;4.00;4.00;;;;;10.85;51.16;98369.06;4693300;28;103143;-73
2020/12/27 06:30:05;;;;;;;;;4.00;3.75;;;;;10.85;51.02;98371.75;4703625;28;104640;-73
2020/12/27 06:32:36;;;;;;;;;5.75;4.75;;;;;10.83;51.22;98366.56;4691423;29;102985;-73
2020/12/27 06:35:06;;;;;;;;;3.00;3.00;;;;;10.82;51.26;98362.19;4699147;28;102905;-73
2020/12/27 06:37:43;;;;;;;;;5.00;3.25;;;;;10.82;51.10;98364.03;4686498;29;103232;-73
2020/12/27 06:40:11;;;;;;;;;6.50;6.00;;;;;10.79;51.13;98351.78;4696789;28;104582;-73
2020/12/27 06:42:38;;;;;;;;;4.25;4.00;;;;;10.81;51.12;98367.81;4706750;28;103061;-73
2020/12/27 06:45:06;;;;;;;;;5.00;4.00;;;;;10.80;51.19;98358.03;4707800;29;103018;-73
2020/12/27 06:47:50;;;;;;;;;4.75;4.00;;;;;10.78;51.21;98354.69;4707444;29;103110;-73
2020/12/27 06:50:20;;;;;;;;;4.00;4.00;;;;;10.77;51.45;98358.44;4710274;29;104368;-73
2020/12/27 06:52:47;;;;;;;;;4.00;4.00;;;;;10.76;51.27;98354.91;4700990;29;103073;-73
2020/12/27 06:55:33;;;;;;;;;5.00;5.00;;;;;10.74;51.08;98355.13;4705327;29;102921;-73
2020/12/27 06:58:20;;;;;;;;;4.25;4.25;;;;;10.72;51.20;98351.78;4650889;29;102914;-73
2020/12/27 07:00:47;;;;;;;;;6.25;5.00;;;;;10.72;51.21;98343.66;4706967;28;105554;-73
2020/12/27 07:03:20;;;;;;;;;3.00;2.00;;;;;10.72;51.14;98343.66;4706292;28;103451;-73
2020/12/27 07:05:48;;;;;;;;;5.00;4.00;;;;;10.72;51.45;98337.41;4707886;29;103573;-73
2020/12/27 07:08:16;;;;;;;;;4.75;4.00;;;;;10.71;51.19;98342.03;4705027;29;103081;-73
2020/12/27 07:10:50;;;;;;;;;4.25;3.25;;;;;10.72;51.30;98329.31;4706947;29;104243;-73
2020/12/27 07:13:17;;;;;;;;;5.00;4.75;;;;;10.69;51.31;98327.88;4687855;29;102898;-75
2020/12/27 07:15:48;;;;;;;;;5.50;3.25;;;;;10.70;51.27;98326.81;4694428;29;102929;-75
2020/12/27 07:18:21;;;;;;;;;5.00;5.00;;;;;10.70;51.31;98320.59;4714033;29;104069;-74
2020/12/27 07:20:50;;;;;;;;;6.75;5.50;;;;;10.70;51.04;98321.41;4713872;29;104304;-75
2020/12/27 07:23:29;;;;;;;;;3.25;3.25;;;;;10.68;51.26;98320.78;4702201;28;103136;-75
2020/12/27 07:26:00;;;;;;;;;4.00;3.50;;;;;10.67;51.27;98321.81;4701638;28;102815;-75
2020/12/27 07:28:27;;;;;;;;;5.00;3.75;;;;;10.67;50.99;98316.41;4701958;28;103298;-75
2020/12/27 07:31:00;;;;;;;;;4.00;4.00;;;;;10.67;51.26;98323.72;4694055;29;104195;-75
2020/12/27 07:33:37;;;;;;;;;4.00;3.25;;;;;10.65;51.25;98312.25;4695249;28;103188;-76
2020/12/27 07:36:07;;;;;;;;;5.00;4.00;;;;;10.66;51.49;98303.94;4705869;29;103287;-75
2020/12/27 07:38:56;;;;;;;;;4.00;4.00;;;;;10.67;51.25;98302.88;4722325;29;103932;-76
2020/12/27 07:41:24;;;;;;;;;6.00;5.25;;;;;10.67;51.27;98285.88;4697971;29;109264;-75
2020/12/27 07:43:51;;;;;;;;;5.00;4.00;;;;;10.67;51.27;98283.16;4709393;28;103001;-75
2020/12/27 07:46:18;;;;;;;;;4.75;3.50;;;;;10.68;51.38;98282.09;4701546;29;103010;-76
2020/12/27 07:48:45;;;;;;;;;4.50;4.00;;;;;10.66;51.43;98282.31;4693412;29;103167;-76
2020/12/27 07:51:17;;;;;;;;;6.00;4.00;;;;;10.66;51.37;98276.91;4705672;29;104042;-76
2020/12/27 07:53:52;;;;;;;;;4.00;4.00;;;;;10.67;51.21;98273.16;4705994;28;102913;-76
2020/12/27 07:56:20;;;;;;;;;4.00;4.00;;;;;10.66;51.19;98274.22;4706217;29;102831;-76
2020/12/27 07:58:57;;;;;;;;;3.00;2.00;;;;;10.66;51.23;98278.78;4705242;29;103075;-75
2020/12/27 08:01:25;;;;;;;;;4.75;4.00;;;;;10.64;51.15;98268.16;4694953;29;109559;-75
2020/12/27 08:04:12;;;;;;;;;5.50;4.00;;;;;10.66;51.16;98270.66;4708107;29;103058;-75
2020/12/27 08:06:42;;;;;;;;;4.00;4.00;;;;;10.65;51.14;98280.66;4651259;28;103321;-76
2020/12/27 08:09:10;;;;;;;;;5.50;4.25;;;;;10.65;51.04;98275.25;4704878;29;102992;-75
2020/12/27 08:11:43;;;;;;;;;6.00;5.00;;;;;10.65;51.29;98263.59;4698884;29;104044;-75
2020/12/27 08:14:11;;;;;;;;;4.50;4.00;;;;;10.63;51.12;98255.69;4703569;29;103043;-75
2020/12/27 08:16:42;;;;;;;;;5.25;4.50;;;;;10.63;51.25;98247.56;4692070;29;102896;-75
2020/12/27 08:19:12;;;;;;;;;5.25;4.00;;;;;10.65;51.24;98248.22;4702749;29;102922;-75
2020/12/27 08:21:43;;;;;;;;;5.75;5.00;;;;;10.64;51.59;98238.44;4707544;29;104033;-75
2020/12/27 08:24:18;;;;;;;;;3.00;3.00;;;;;10.65;51.28;98252.78;4698648;28;102969;-75
2020/12/27 08:26:46;;;;;;;;;5.00;4.00;;;;;10.65;51.28;98248.22;4699173;29;103650;-76
2020/12/27 08:29:20;;;;;;;;;6.25;5.00;;;;;10.64;51.10;98246.53;4705465;28;102972;-76
2020/12/27 08:31:48;;;;;;;;;5.00;4.00;;;;;10.64;51.08;98245.69;4694570;29;103696;-76
2020/12/27 08:34:19;;;;;;;;;7.50;5.25;;;;;10.63;51.28;98250.28;4709347;28;106512;-78
2020/12/27 08:36:49;;;;;;;;;5.00;4.75;;;;;10.64;51.36;98257.34;4704106;29;102926;-77
2020/12/27 08:39:41;;;;;;;;;6.00;5.25;;;;;10.63;51.04;98266.50;4692685;29;103050;-77
2020/12/27 08:42:17;;;;;;;;;3.25;3.00;;;;;10.64;50.84;98278.97;4639204;29;108324;-74
2020/12/27 08:44:49;;;;;;;;;4.00;3.25;;;;;10.66;51.76;98274.22;4690170;29;102896;-76
2020/12/27 08:47:23;;;;;;;;;4.00;4.00;;;;;10.66;51.29;98274.22;4691567;29;104058;-76
2020/12/27 08:50:10;;;;;;;;;4.50;4.00;;;;;10.67;51.42;98273.16;4704947;28;103251;-75
2020/12/27 08:52:37;;;;;;;;;4.25;3.75;;;;;10.65;51.44;98269.00;4647059;29;109630;-76
2020/12/27 08:55:05;;;;;;;;;3.50;3.50;;;;;10.66;51.19;98267.97;4707020;29;102858;-76
2020/12/27 08:57:32;;;;;;;;;6.00;4.00;;;;;10.65;51.38;98264.44;4704510;28;102908;-76
2020/12/27 09:00:06;;;;;;;;;3.25;3.25;;;;;10.65;51.21;98253.63;4700315;29;102991;-76
2020/12/27 09:02:32;;;;;;;;;3.75;3.75;;;;;10.66;51.42;98249.03;4693825;29;103100;-76
2020/12/27 09:05:17;;;;;;;;;3.00;2.00;;;;;10.64;51.22;98241.13;4698113;29;103106;-76
2020/12/27 09:07:45;;;;;;;;;4.25;4.00;;;;;10.63;51.26;98225.94;4703659;29;103152;-77
2020/12/27 09:10:29;;;;;;;;;0.00;0.00;;;;;10.65;50.98;98213.06;4700788;29;102913;-76
2020/12/27 09:13:03;;;;;;;;;6.75;6.75;;;;;10.63;51.36;98209.72;4704406;29;109278;-76
2020/12/27 09:15:37;;;;;;;;;7.00;6.75;;;;;10.65;51.13;98201.41;4715344;28;102964;-76
2020/12/27 09:18:07;;;;;;;;;4.00;4.00;;;;;10.66;51.11;98205.78;4698669;29;102945;-76
2020/12/27 09:20:38;;;;;;;;;4.75;3.50;;;;;10.66;51.09;98194.97;4702457;29;102877;-76
2020/12/27 09:23:20;;;;;;;;;4.00;3.00;;;;;10.67;50.75;98197.44;4696795;29;104333;-76
2020/12/27 09:25:47;;;;;;;;;4.75;3.75;;;;;10.67;50.87;98183.91;4705340;29;103090;-76
2020/12/27 09:28:16;;;;;;;;;4.50;4.50;;;;;10.68;51.06;98182.06;4700258;28;103048;-76
2020/12/27 09:30:43;;;;;;;;;5.50;5.00;;;;;10.68;50.96;98173.94;4701563;29;102938;-76
2020/12/27 09:33:10;;;;;;;;;5.25;5.00;;;;;10.69;50.77;98162.91;4699736;29;103963;-76
2020/12/27 09:35:37;;;;;;;;;5.50;4.25;;;;;10.68;50.79;98155.00;4703533;29;103680;-76
2020/12/27 09:38:19;;;;;;;;;6.25;5.00;;;;;10.69;50.74;98140.47;4697801;29;103431;-76
2020/12/27 09:40:46;;;;;;;;;6.00;5.00;;;;;10.65;51.01;98145.47;4708741;29;103043;-75
2020/12/27 09:43:13;;;;;;;;;5.00;5.00;;;;;10.68;50.79;98138.78;4700469;29;104329;-75
2020/12/27 09:45:40;;;;;;;;;4.00;4.00;;;;;10.68;50.33;98150.44;4702067;29;104219;-75
2020/12/27 09:48:07;;;;;;;;;3.50;3.00;;;;;10.69;50.70;98140.47;4704942;28;102539;-76
2020/12/27 09:50:37;;;;;;;;;4.00;4.00;;;;;10.69;50.47;98144.00;4712531;28;102876;-75
2020/12/27 09:53:04;;;;;;;;;4.00;4.00;;;;;10.67;50.62;98129.84;4701374;28;104492;-75
2020/12/27 09:55:31;;;;;;;;;5.00;5.00;;;;;10.66;50.87;98117.38;4704078;29;103016;-75
2020/12/27 09:57:57;;;;;;;;;5.00;4.50;;;;;10.66;50.71;98120.09;4692331;29;104876;-75
2020/12/27 10:00:24;;;;;;;;;6.25;5.50;;;;;10.69;50.69;98119.66;4707039;29;103638;-75
2020/12/27 10:02:51;;;;;;;;;5.00;5.00;;;;;10.72;50.89;98103.00;4687916;29;108943;-75
2020/12/27 10:05:17;;;;;;;;;5.00;5.00;;;;;10.75;51.02;98099.06;4700990;29;102951;-75
2020/12/27 10:07:44;;;;;;;;;6.00;5.75;;;;;10.77;50.98;98090.72;4701997;28;103008;-76
2020/12/27 10:10:12;;;;;;;;;4.50;3.75;;;;;10.79;50.87;98088.63;4710094;28;103260;-76
2020/12/27 10:12:40;;;;;;;;;5.00;4.00;;;;;10.77;50.53;98077.19;4704688;29;104060;-86
2020/12/27 10:15:08;;;;;;;;;5.00;5.00;;;;;10.84;50.94;98075.28;4689507;29;102982;-76
2020/12/27 10:17:35;;;;;;;;;9.25;6.00;;;;;10.84;51.41;98068.00;4691682;29;102786;-75
2020/12/27 10:20:02;;;;;;;;;3.00;2.50;;;;;10.84;51.16;98059.91;4700098;28;103083;-75
2020/12/27 10:22:29;;;;;;;;;8.50;6.00;;;;;10.85;51.17;98060.72;4702111;28;104035;-75
2020/12/27 10:24:56;;;;;;;;;4.00;3.25;;;;;10.86;51.27;98059.66;4716334;29;104160;-76
2020/12/27 10:27:22;;;;;;;;;5.00;4.00;;;;;10.86;51.25;98048.84;4701590;29;102874;-75
2020/12/27 10:29:50;;;;;;;;;6.00;5.25;;;;;10.85;51.07;98050.72;4702034;29;104294;-74
2020/12/27 10:32:17;;;;;;;;;7.00;5.00;;;;;10.84;51.02;98050.97;4710637;28;104070;-77
2020/12/27 10:34:44;;;;;;;;;5.75;5.00;;;;;10.89;51.33;98032.22;4714202;28;102974;-75
2020/12/27 10:37:11;;;;;;;;;5.00;4.00;;;;;10.90;51.71;98007.63;4703921;29;104728;-75
2020/12/27 10:39:38;;;;;;;;;7.50;6.00;;;;;10.91;51.67;97997.63;4701531;29;103050;-75
2020/12/27 10:42:04;;;;;;;;;3.00;3.00;;;;;10.91;51.19;97984.94;4700930;29;103856;-75
2020/12/27 10:44:31;;;;;;;;;7.00;5.00;;;;;10.93;51.34;97990.16;4711828;28;103638;-75
2020/12/27 10:46:58;;;;;;;;;4.00;3.50;;;;;10.92;51.07;97975.78;4707307;29;103600;-75
2020/12/27 10:49:27;;;;;;;;;5.00;5.00;;;;;10.92;50.98;97977.66;4709445;29;103707;-75
2020/12/27 10:51:54;;;;;;;;;8.00;6.00;;;;;10.94;50.86;97975.59;4710233;29;104301;-75
2020/12/27 10:54:20;;;;;;;;;9.75;7.25;;;;;10.98;51.07;97972.22;4711701;29;103019;-75
2020/12/27 10:56:47;;;;;;;;;6.00;5.75;;;;;11.01;51.05;97977.19;4697706;29;102671;-75
2020/12/27 10:59:14;;;;;;;;;7.00;5.00;;;;;11.06;51.77;97971.94;4703420;28;103074;-76
2020/12/27 11:01:45;;;;;;;;;4.50;4.50;;;;;11.09;51.76;97970.66;4699162;28;104708;-76
2020/12/27 11:04:12;;;;;;;;;5.25;5.25;;;;;11.10;50.83;97959.63;4709321;29;102810;-76
2020/12/27 11:06:39;;;;;;;;;7.75;5.50;;;;;11.14;50.83;97932.97;4700991;29;102803;-76
2020/12/27 11:09:06;;;;;;;;;6.00;6.00;;;;;11.16;51.20;97925.47;4704653;29;103047;-76
2020/12/27 11:11:35;;;;;;;;;7.00;5.50;;;;;11.18;50.59;97926.91;4701353;28;104012;-76
2020/12/27 11:14:07;;;;;;;;;5.00;4.75;;;;;11.20;50.79;97915.84;4694513;29;102798;-76
2020/12/27 11:16:34;;;;;;;;;7.00;6.00;;;;;11.21;50.41;97906.69;4693625;29;102918;-76
2020/12/27 11:19:00;;;;;;;;;7.00;7.00;;;;;11.21;50.47;97895.88;4706737;29;103008;-76
2020/12/27 11:21:28;;;;;;;;;7.50;5.00;;;;;11.23;50.44;97899.16;4693702;29;104570;-76
2020/12/27 11:23:54;;;;;;;;;7.25;6.25;;;;;11.25;50.33;97897.09;4703499;29;102832;-76
2020/12/27 11:26:21;;;;;;;;;8.00;7.00;;;;;11.25;49.98;97886.25;4697115;29;104947;-76
2020/12/27 11:28:48;;;;;;;;;5.00;5.00;;;;;11.26;49.90;97874.34;4703335;29;103091;-76
2020/12/27 11:31:16;;;;;;;;;7.00;6.00;;;;;11.28;50.06;97869.56;4713668;29;104536;-76
2020/12/27 11:33:43;;;;;;;;;4.25;4.00;;;;;11.25;50.00;97874.59;4708677;28;102779;-76
2020/12/27 11:36:11;;;;;;;;;9.25;7.00;;;;;11.30;50.12;97862.03;4703790;29;102802;-76